Time;durP1;ratioP1;P1;durP2;ratioP2;P2;SDS_P1;SDS_P2;PMS_P1;PMS_P2;Temp;Humidity;BMP_temperature;BMP_pressure;BME280_temperature;BME280_humidity;BME280_pressure;Samples;Min_cycle;Max_cycle;Signal;HPM_P1;HPM_P2
2022/12/06 00:00:25;;;;;;;7.60;3.28;;;6.30;99.90;;;;;;5019869;28;20494;-76
2022/12/06 00:02:50;;;;;;;4.22;2.83;;;6.30;99.90;;;;;;5019815;28;20053;-76
2022/12/06 00:05:16;;;;;;;3.97;3.20;;;6.30;99.90;;;;;;5022871;28;20083;-76
2022/12/06 00:07:42;;;;;;;5.82;3.17;;;6.30;99.90;;;;;;5018390;28;20094;-75
2022/12/06 00:10:08;;;;;;;6.57;2.95;;;6.30;99.90;;;;;;5022724;28;20497;-76
2022/12/06 00:12:34;;;;;;;7.07;2.97;;;6.30;99.90;;;;;;5020293;28;20735;-76
2022/12/06 00:14:59;;;;;;;5.30;3.50;;;6.30;99.90;;;;;;5014486;28;20132;-76
2022/12/06 00:17:26;;;;;;;6.25;3.05;;;6.20;99.90;;;;;;5014655;28;20049;-76
2022/12/06 00:19:52;;;;;;;5.90;2.70;;;5.70;99.90;;;;;;5013298;28;20077;-74
2022/12/06 00:22:17;;;;;;;8.35;3.50;;;6.20;99.90;;;;;;5022370;28;20112;-76
2022/12/06 00:24:43;;;;;;;6.28;3.72;;;6.20;99.90;;;;;;5020829;28;20045;-75
2022/12/06 00:27:09;;;;;;;6.60;2.97;;;6.10;99.90;;;;;;5009170;28;20124;-76
2022/12/06 00:29:35;;;;;;;5.53;2.90;;;6.20;99.90;;;;;;5023865;28;20143;-76
2022/12/06 00:32:00;;;;;;;5.00;3.05;;;6.20;99.90;;;;;;5017506;28;20053;-75
2022/12/06 00:34:26;;;;;;;5.20;2.92;;;6.20;99.90;;;;;;5017189;28;20851;-75
2022/12/06 00:36:52;;;;;;;6.28;2.90;;;6.10;99.90;;;;;;5017647;28;20625;-76
2022/12/06 00:39:18;;;;;;;7.50;3.20;;;6.10;99.90;;;;;;5018176;28;20501;-76
2022/12/06 00:41:44;;;;;;;4.15;2.72;;;6.10;99.90;;;;;;5023725;28;20041;-76
2022/12/06 00:44:10;;;;;;;5.60;3.25;;;6.10;99.90;;;;;;5013285;28;20942;-76
2022/12/06 00:46:37;;;;;;;10.57;3.35;;;6.10;99.90;;;;;;5016609;28;20085;-76
2022/12/06 00:49:05;;;;;;;5.72;3.10;;;6.20;99.90;;;;;;5015484;28;20425;-76
2022/12/06 00:51:32;;;;;;;7.78;3.15;;;6.20;99.90;;;;;;5012502;28;20041;-76
2022/12/06 00:53:58;;;;;;;5.65;3.53;;;6.20;99.90;;;;;;5014135;28;20124;-75
2022/12/06 00:56:24;;;;;;;6.55;3.45;;;6.20;99.90;;;;;;5017714;28;20136;-75
2022/12/06 00:58:50;;;;;;;7.50;3.08;;;6.20;99.90;;;;;;5016807;28;20060;-75
2022/12/06 01:01:25;;;;;;;6.10;3.33;;;6.20;99.90;;;;;;5010028;28;20045;-76
2022/12/06 01:03:55;;;;;;;6.05;3.97;;;6.00;99.90;;;;;;5020257;28;20053;-76
2022/12/06 01:06:26;;;;;;;5.68;3.88;;;6.20;99.90;;;;;;5014528;28;20137;-77
2022/12/06 01:08:53;;;;;;;7.75;3.83;;;6.10;99.90;;;;;;5014299;28;20152;-76
2022/12/06 01:11:20;;;;;;;8.00;4.63;;;6.10;99.90;;;;;;5013430;28;20042;-75
2022/12/06 01:13:45;;;;;;;7.70;3.38;;;6.80;99.90;;;;;;5007462;28;20046;-75
2022/12/06 01:16:18;;;;;;;5.63;3.13;;;6.00;99.90;;;;;;5009280;28;20054;-75
2022/12/06 01:18:45;;;;;;;3.15;2.60;;;6.00;99.90;;;;;;5020668;28;20088;-76
2022/12/06 01:21:14;;;;;;;6.25;3.38;;;6.00;99.90;;;;;;5016192;28;20069;-76
2022/12/06 01:23:41;;;;;;;7.07;3.80;;;6.00;99.90;;;;;;5009443;28;20081;-77
2022/12/06 01:26:13;;;;;;;4.45;3.00;;;6.00;99.90;;;;;;5017035;28;20045;-76
2022/12/06 01:28:38;;;;;;;4.53;2.88;;;6.00;99.90;;;;;;5022348;28;20080;-75
2022/12/06 01:31:07;;;;;;;5.82;2.95;;;6.00;99.90;;;;;;5019706;28;20148;-76
2022/12/06 01:33:33;;;;;;;3.00;2.45;;;6.00;99.90;;;;;;5022287;28;20144;-76
2022/12/06 01:35:59;;;;;;;3.75;2.20;;;6.00;99.90;;;;;;5010484;28;20053;-75
2022/12/06 01:38:25;;;;;;;3.50;2.25;;;6.00;99.90;;;;;;5014549;28;20049;-76
2022/12/06 01:40:51;;;;;;;3.80;2.58;;;6.00;99.90;;;;;;5015723;28;20120;-76
2022/12/06 01:43:38;;;;;;;3.92;1.95;;;5.90;99.90;;;;;;5016396;28;20056;-77
2022/12/06 01:46:18;;;;;;;3.28;1.92;;;5.90;99.90;;;;;;5011496;28;20045;-77
2022/12/06 01:48:46;;;;;;;7.40;2.45;;;6.00;99.90;;;;;;5010543;28;20171;-76
2022/12/06 01:51:14;;;;;;;6.25;2.35;;;6.00;99.90;;;;;;5014103;28;20041;-76
2022/12/06 01:53:43;;;;;;;3.20;2.35;;;6.00;99.90;;;;;;5008375;28;20054;-76
2022/12/06 01:56:09;;;;;;;2.45;1.85;;;5.90;99.90;;;;;;5008736;28;20487;-77
2022/12/06 01:58:39;;;;;;;3.17;2.03;;;5.90;99.90;;;;;;5015919;28;20164;-76
2022/12/06 02:01:06;;;;;;;3.28;1.80;;;5.90;99.90;;;;;;5019862;28;20111;-76
2022/12/06 02:03:33;;;;;;;2.25;1.77;;;5.90;99.90;;;;;;5018766;28;20441;-74
2022/12/06 02:06:03;;;;;;;4.18;2.08;;;5.90;99.90;;;;;;5019945;28;20048;-74
2022/12/06 02:08:30;;;;;;;3.10;1.60;;;5.90;99.90;;;;;;5017339;28;20052;-77
2022/12/06 02:10:56;;;;;;;2.47;1.70;;;5.90;99.90;;;;;;5010107;28;20084;-76
2022/12/06 02:13:23;;;;;;;3.70;1.85;;;5.80;99.90;;;;;;5015061;28;20124;-76
2022/12/06 02:16:01;;;;;;;2.97;1.40;;;5.90;99.90;;;;;;5014002;28;20052;-76
2022/12/06 02:18:40;;;;;;;2.85;1.20;;;5.80;99.90;;;;;;5016611;28;20603;-76
2022/12/06 02:21:31;;;;;;;1.88;1.50;;;5.80;99.90;;;;;;5018605;28;20287;-76
2022/12/06 02:24:25;;;;;;;2.75;1.38;;;5.80;99.90;;;;;;5016179;28;20046;-76
2022/12/06 02:27:02;;;;;;;3.10;1.23;;;5.80;99.90;;;;;;5015888;28;20850;-76
2022/12/06 02:29:55;;;;;;;1.23;1.13;;;5.80;99.90;;;;;;5017070;28;20098;-75
2022/12/06 02:32:33;;;;;;;2.22;1.20;;;5.80;99.90;;;;;;5026723;28;20049;-77
2022/12/06 02:35:09;;;;;;;1.30;0.98;;;5.80;99.90;;;;;;5017620;28;20078;-76
2022/12/06 02:37:52;;;;;;;5.00;1.70;;;5.80;99.90;;;;;;5013671;28;20899;-76
2022/12/06 02:40:24;;;;;;;1.02;1.00;;;5.80;99.90;;;;;;5015723;28;20045;-76
2022/12/06 02:42:55;;;;;;;1.38;0.80;;;5.80;99.90;;;;;;5016454;28;20120;-76
2022/12/06 02:45:26;;;;;;;2.67;0.90;;;5.80;99.90;;;;;;5019774;28;20053;-76
2022/12/06 02:47:55;;;;;;;1.92;1.50;;;5.80;99.90;;;;;;5011288;28;20037;-77
2022/12/06 02:50:28;;;;;;;2.30;0.93;;;6.30;99.90;;;;;;5023988;28;20049;-76
2022/12/06 02:52:57;;;;;;;2.03;1.15;;;5.80;99.90;;;;;;5023381;28;20616;-76
2022/12/06 02:55:25;;;;;;;2.85;1.50;;;5.80;99.90;;;;;;5016405;28;20428;-76
2022/12/06 02:57:53;;;;;;;1.13;1.02;;;5.80;99.90;;;;;;5015074;28;20052;-76
2022/12/06 03:00:42;;;;;;;4.43;1.80;;;5.80;99.90;;;;;;5018514;28;20049;-75
2022/12/06 03:03:17;;;;;;;3.45;1.52;;;5.70;99.90;;;;;;5011388;28;20049;-76
2022/12/06 03:06:02;;;;;;;1.67;1.58;;;5.70;99.90;;;;;;5007608;28;21541;-76
2022/12/06 03:08:49;;;;;;;1.95;1.30;;;5.80;99.90;;;;;;5012391;28;20495;-76
2022/12/06 03:11:15;;;;;;;4.07;1.85;;;5.80;99.90;;;;;;5016351;28;20192;-76
2022/12/06 03:14:02;;;;;;;3.33;1.63;;;5.90;99.90;;;;;;5004608;28;20120;-75
2022/12/06 03:16:48;;;;;;;5.15;2.17;;;5.80;99.90;;;;;;5009393;28;20816;-75
2022/12/06 03:19:20;;;;;;;3.40;1.60;;;5.80;99.90;;;;;;5013629;28;20051;-76
2022/12/06 03:21:56;;;;;;;2.58;1.35;;;5.80;99.90;;;;;;5012797;28;20053;-76
2022/12/06 03:24:23;;;;;;;2.75;1.52;;;5.80;99.90;;;;;;5012956;28;20561;-76
2022/12/06 03:26:50;;;;;;;2.95;1.38;;;6.20;99.90;;;;;;5016002;28;20052;-77
2022/12/06 03:29:19;;;;;;;1.88;1.50;;;6.00;99.90;;;;;;5015641;28;20072;-76
2022/12/06 03:31:46;;;;;;;1.52;1.42;;;6.60;99.90;;;;;;5014356;28;20192;-76
2022/12/06 03:34:29;;;;;;;2.00;1.40;;;6.30;99.90;;;;;;5014841;28;20505;-76
2022/12/06 03:36:55;;;;;;;2.00;1.25;;;6.10;99.90;;;;;;5020392;28;20111;-76
2022/12/06 03:39:43;;;;;;;2.67;1.50;;;6.60;99.90;;;;;;5013786;28;20405;-76
2022/12/06 03:42:09;;;;;;;3.80;1.60;;;6.10;99.90;;;;;;5013221;28;20041;-76
2022/12/06 03:44:35;;;;;;;2.70;1.52;;;6.20;99.90;;;;;;5014160;28;20091;-76
2022/12/06 03:47:25;;;;;;;4.07;1.65;;;6.20;99.90;;;;;;5011200;28;20063;-76
2022/12/06 03:49:58;;;;;;;2.45;1.70;;;6.20;99.90;;;;;;5015643;28;20057;-76
2022/12/06 03:52:26;;;;;;;3.33;1.67;;;6.20;99.90;;;;;;5015439;28;20144;-76
2022/12/06 03:54:52;;;;;;;5.10;2.75;;;6.20;99.90;;;;;;5013093;28;20468;-77
2022/12/06 03:57:18;;;;;;;2.67;1.77;;;6.20;99.90;;;;;;4993349;28;20115;-76
2022/12/06 03:59:45;;;;;;;2.13;1.92;;;6.20;99.90;;;;;;5015617;28;20076;-77
2022/12/06 04:02:10;;;;;;;2.88;1.60;;;6.20;99.90;;;;;;5014331;28;20159;-76
2022/12/06 04:04:36;;;;;;;6.55;1.70;;;6.30;99.90;;;;;;5022282;28;20483;-76
2022/12/06 04:07:02;;;;;;;2.17;1.83;;;6.30;99.90;;;;;;5012820;28;20041;-76
2022/12/06 04:14:56;;;;;;;3.50;1.65;;;6.30;99.90;;;;;;5011305;28;20827;-76
2022/12/06 04:20:06;;;;;;;2.85;1.58;;;6.30;99.90;;;;;;5006389;28;20049;-76
2022/12/06 04:25:16;;;;;;;2.30;1.67;;;6.20;99.90;;;;;;5015781;28;20056;-76
2022/12/06 04:38:43;;;;;;;1.45;1.10;;;6.20;99.90;;;;;;5014943;28;20610;-77
2022/12/06 04:43:40;;;;;;;2.05;1.50;;;6.10;99.90;;;;;;5010479;28;20050;-76
2022/12/06 04:44:02;;;;;;;2.85;1.50;;;6.20;99.90;;;;;;5018721;28;20060;-76
2022/12/06 04:46:28;;;;;;;2.08;1.48;;;6.10;99.90;;;;;;5015099;28;20111;-77
2022/12/06 04:48:54;;;;;;;1.42;1.05;;;6.10;99.90;;;;;;5014240;28;20784;-76
2022/12/06 04:51:20;;;;;;;2.72;1.25;;;6.80;99.90;;;;;;5011424;28;20041;-76
2022/12/06 04:53:46;;;;;;;3.35;1.65;;;6.00;99.90;;;;;;5003688;28;20057;-76
2022/12/06 04:56:12;;;;;;;1.58;1.48;;;6.10;99.90;;;;;;5015841;28;20096;-76
2022/12/06 04:58:37;;;;;;;1.65;1.50;;;7.00;99.90;;;;;;5009529;28;20061;-76
2022/12/06 05:01:03;;;;;;;5.97;2.00;;;6.00;99.90;;;;;;5016709;28;20118;-76
2022/12/06 05:03:29;;;;;;;1.67;1.40;;;6.00;99.90;;;;;;5016136;28;20057;-76
2022/12/06 05:05:55;;;;;;;2.22;1.45;;;6.00;99.90;;;;;;5004051;28;20647;-76
2022/12/06 05:08:20;;;;;;;2.38;1.70;;;5.90;99.90;;;;;;5016474;28;20049;-76
2022/12/06 05:10:47;;;;;;;4.65;1.80;;;5.90;99.90;;;;;;5015780;28;20634;-76
2022/12/06 05:13:14;;;;;;;1.45;1.35;;;6.20;99.90;;;;;;5013698;28;20433;-77
2022/12/06 05:15:58;;;;;;;5.57;2.40;;;5.90;99.90;;;;;;5018735;28;20049;-76
2022/12/06 05:18:24;;;;;;;1.92;1.70;;;5.80;99.90;;;;;;5017120;28;20128;-75
2022/12/06 05:20:59;;;;;;;2.85;1.95;;;6.30;99.90;;;;;;5016969;28;20057;-76
2022/12/06 05:23:25;;;;;;;2.20;1.40;;;5.70;99.90;;;;;;5015505;28;20049;-76
2022/12/06 05:26:03;;;;;;;2.42;2.00;;;5.70;99.90;;;;;;5015999;28;20056;-76
2022/12/06 05:28:30;;;;;;;2.47;1.85;;;5.60;99.90;;;;;;5011835;28;20072;-76
2022/12/06 05:30:55;;;;;;;1.95;1.60;;;5.60;99.90;;;;;;5013626;28;20136;-76
2022/12/06 05:33:22;;;;;;;4.72;2.70;;;5.60;99.90;;;;;;5015781;28;20699;-77
2022/12/06 05:35:49;;;;;;;2.45;1.55;;;5.50;99.90;;;;;;5010141;28;20106;-76
2022/12/06 05:38:14;;;;;;;3.60;1.80;;;5.70;99.90;;;;;;5019354;28;20049;-76
2022/12/06 05:40:42;;;;;;;2.53;1.67;;;5.40;99.90;;;;;;5015647;28;20068;-76
2022/12/06 05:43:08;;;;;;;3.00;1.63;;;5.80;99.90;;;;;;5019323;28;20072;-76
2022/12/06 05:45:34;;;;;;;2.35;1.85;;;5.30;99.90;;;;;;5017370;28;20170;-76
2022/12/06 05:48:00;;;;;;;2.40;1.73;;;5.20;99.90;;;;;;5013661;28;20056;-76
2022/12/06 05:50:25;;;;;;;3.38;1.85;;;5.60;99.90;;;;;;5018841;28;20049;-76
2022/12/06 05:52:55;;;;;;;2.47;1.80;;;5.10;99.90;;;;;;5014064;28;20033;-76
2022/12/06 05:55:21;;;;;;;2.90;1.63;;;5.00;99.90;;;;;;5009551;28;20038;-76
2022/12/06 05:57:47;;;;;;;1.90;1.70;;;5.10;99.90;;;;;;5019246;28;20077;-77
2022/12/06 06:00:14;;;;;;;2.42;2.03;;;5.70;99.90;;;;;;5018464;28;20045;-76
2022/12/06 06:02:40;;;;;;;2.35;2.00;;;5.00;99.90;;;;;;5018438;28;20056;-76
2022/12/06 06:05:06;;;;;;;4.88;2.15;;;5.30;99.90;;;;;;5014940;28;20046;-76
2022/12/06 06:07:32;;;;;;;3.63;2.08;;;5.00;99.90;;;;;;5011378;28;20053;-76
2022/12/06 06:09:58;;;;;;;4.18;2.00;;;5.00;99.90;;;;;;5014153;28;20045;-76
2022/12/06 06:12:24;;;;;;;2.47;2.03;;;5.50;99.90;;;;;;5022853;28;20498;-76
2022/12/06 06:14:49;;;;;;;3.88;1.70;;;5.20;99.90;;;;;;5013348;28;20095;-77
2022/12/06 06:17:15;;;;;;;3.78;1.70;;;5.10;99.90;;;;;;5016924;28;20049;-77
2022/12/06 06:19:41;;;;;;;2.95;2.03;;;5.10;99.90;;;;;;5007501;28;20068;-77
2022/12/06 06:22:07;;;;;;;2.42;2.10;;;5.20;99.90;;;;;;5019655;28;20033;-76
2022/12/06 06:24:37;;;;;;;2.13;1.92;;;5.10;99.90;;;;;;5011537;28;20214;-76
2022/12/06 06:27:03;;;;;;;2.47;2.10;;;5.20;99.90;;;;;;5006599;28;20049;-76
2022/12/06 06:29:29;;;;;;;3.95;2.22;;;5.40;99.90;;;;;;5001220;28;20398;-76
2022/12/06 06:31:55;;;;;;;2.00;1.85;;;5.00;99.90;;;;;;5001036;28;20053;-76
2022/12/06 06:34:21;;;;;;;4.20;2.13;;;5.50;99.90;;;;;;5009756;28;20041;-76
2022/12/06 06:36:46;;;;;;;3.80;2.55;;;5.50;99.90;;;;;;5001645;28;20121;-75
2022/12/06 06:39:13;;;;;;;4.50;2.20;;;5.00;99.90;;;;;;5000358;28;20697;-75
2022/12/06 06:41:38;;;;;;;3.53;2.33;;;4.90;99.90;;;;;;5007149;28;20127;-76
2022/12/06 06:44:04;;;;;;;4.72;2.10;;;4.90;99.90;;;;;;4998611;28;20552;-75
2022/12/06 06:46:30;;;;;;;2.25;1.83;;;4.90;99.90;;;;;;5006633;28;20083;-76
2022/12/06 06:48:56;;;;;;;3.35;1.95;;;4.90;99.90;;;;;;5003077;28;20064;-76
2022/12/06 06:51:22;;;;;;;3.08;2.47;;;5.00;99.90;;;;;;5000266;28;20118;-75
2022/12/06 06:53:47;;;;;;;3.70;2.85;;;5.30;99.90;;;;;;5005667;28;20571;-75
2022/12/06 06:56:13;;;;;;;2.47;2.00;;;5.00;99.90;;;;;;5004204;28;20037;-75
2022/12/06 06:58:39;;;;;;;3.50;2.40;;;4.90;99.90;;;;;;5021231;28;20348;-75
2022/12/06 07:01:07;;;;;;;3.72;2.70;;;4.90;99.90;;;;;;5007355;28;20045;-76
2022/12/06 07:03:33;;;;;;;3.35;2.80;;;4.90;99.90;;;;;;5003692;28;20453;-75
2022/12/06 07:06:08;;;;;;;2.85;2.45;;;5.00;99.90;;;;;;5004742;28;20197;-76
2022/12/06 07:08:34;;;;;;;3.50;2.53;;;5.00;99.90;;;;;;5001659;28;20049;-76
2022/12/06 07:11:00;;;;;;;2.55;2.00;;;5.00;99.90;;;;;;5001641;28;20131;-76
2022/12/06 07:13:27;;;;;;;3.72;2.85;;;5.00;99.90;;;;;;5000043;28;20635;-77
2022/12/06 07:15:54;;;;;;;3.85;2.38;;;5.00;99.90;;;;;;5009502;28;20139;-76
2022/12/06 07:18:20;;;;;;;7.45;3.10;;;4.90;99.90;;;;;;5002337;28;20471;-76
2022/12/06 07:20:47;;;;;;;4.75;2.40;;;4.90;99.90;;;;;;5000014;28;20038;-77
2022/12/06 07:23:14;;;;;;;4.72;1.92;;;5.10;99.90;;;;;;5002623;28;20049;-76
2022/12/06 07:25:40;;;;;;;3.45;2.30;;;5.00;99.90;;;;;;5001540;28;20054;-76
2022/12/06 07:28:06;;;;;;;3.25;2.55;;;4.80;99.90;;;;;;5001978;28;20041;-76
2022/12/06 07:30:32;;;;;;;4.45;2.75;;;4.70;99.90;;;;;;5016843;28;20119;-76
2022/12/06 07:32:58;;;;;;;3.45;2.42;;;4.60;99.90;;;;;;5009318;28;20064;-76
2022/12/06 07:35:24;;;;;;;3.38;2.80;;;4.60;99.90;;;;;;5015585;28;20045;-76
2022/12/06 07:37:50;;;;;;;4.38;2.50;;;4.60;99.90;;;;;;5013408;28;20647;-77
2022/12/06 07:40:16;;;;;;;3.10;2.40;;;4.50;99.90;;;;;;5011094;28;20085;-78
2022/12/06 07:45:27;;;;;;;5.35;2.55;;;4.70;99.90;;;;;;5014635;28;20084;-78
2022/12/06 07:47:52;;;;;;;4.75;2.53;;;4.30;99.90;;;;;;5011701;28;20049;-79
2022/12/06 07:50:21;;;;;;;4.47;2.60;;;4.30;99.90;;;;;;5013581;28;20045;-81
2022/12/06 07:52:48;;;;;;;3.80;2.70;;;5.00;99.90;;;;;;5010856;28;20107;-79
2022/12/06 07:55:15;;;;;;;3.15;2.30;;;4.20;99.90;;;;;;5015035;28;20517;-79
2022/12/06 07:57:41;;;;;;;3.72;2.45;;;4.60;99.90;;;;;;5015336;28;20533;-77
2022/12/06 08:00:09;;;;;;;3.75;2.00;;;4.20;99.90;;;;;;5016339;28;20045;-78
2022/12/06 08:02:35;;;;;;;4.95;3.40;;;4.20;99.90;;;;;;5010243;28;20050;-78
2022/12/06 08:05:01;;;;;;;4.43;2.90;;;4.30;99.90;;;;;;5016222;28;20058;-78
2022/12/06 08:07:27;;;;;;;7.57;3.35;;;5.50;99.90;;;;;;5008389;28;20045;-78
2022/12/06 08:09:52;;;;;;;3.10;2.75;;;4.30;99.90;;;;;;5011794;28;20763;-77
2022/12/06 08:12:19;;;;;;;3.25;2.50;;;4.20;99.90;;;;;;5006319;28;20038;-78
2022/12/06 08:14:45;;;;;;;4.25;2.50;;;4.80;99.90;;;;;;5013675;28;20103;-78
2022/12/06 08:17:11;;;;;;;4.60;3.28;;;4.20;99.90;;;;;;5010348;28;20050;-77
2022/12/06 08:19:37;;;;;;;4.20;3.15;;;4.70;99.90;;;;;;5012476;28;20057;-78
2022/12/06 08:22:03;;;;;;;4.10;3.10;;;4.50;99.90;;;;;;5015580;28;20490;-78
2022/12/06 08:24:28;;;;;;;5.40;3.78;;;4.20;99.90;;;;;;5014144;28;20045;-77
2022/12/06 08:26:54;;;;;;;5.68;3.70;;;4.40;99.90;;;;;;5015319;28;20088;-77
2022/12/06 08:29:21;;;;;;;5.75;3.97;;;4.30;99.90;;;;;;5005658;28;20058;-78
2022/12/06 08:31:47;;;;;;;5.35;3.50;;;4.80;99.90;;;;;;5012613;28;20360;-77
2022/12/06 08:34:14;;;;;;;4.88;3.70;;;4.50;99.90;;;;;;5015767;28;20384;-77
2022/12/06 08:36:40;;;;;;;6.35;3.55;;;4.60;99.90;;;;;;5014729;28;20049;-78
2022/12/06 08:39:08;;;;;;;4.55;4.05;;;4.50;99.90;;;;;;5015464;28;20053;-80
2022/12/06 08:44:19;;;;;;;3.60;3.08;;;5.20;99.90;;;;;;5017891;28;20056;-79
2022/12/06 08:46:45;;;;;;;4.72;3.47;;;4.60;99.90;;;;;;5014161;28;20234;-82
2022/12/06 08:49:12;;;;;;;4.00;3.20;;;4.70;99.90;;;;;;5015113;28;20057;-76
2022/12/06 08:51:38;;;;;;;4.82;3.28;;;4.80;99.90;;;;;;5012246;28;20053;-76
2022/12/06 08:54:05;;;;;;;4.93;3.60;;;4.90;99.90;;;;;;5012929;28;20038;-77
2022/12/06 08:56:31;;;;;;;4.60;3.28;;;5.00;99.90;;;;;;5010086;28;20133;-77
2022/12/06 08:58:57;;;;;;;3.78;2.95;;;5.20;99.90;;;;;;5000069;28;20042;-77
2022/12/06 09:01:27;;;;;;;4.90;3.30;;;5.40;99.90;;;;;;5013077;28;20551;-77
2022/12/06 09:03:53;;;;;;;4.68;3.30;;;5.20;99.90;;;;;;5017002;28;20160;-77
2022/12/06 09:06:20;;;;;;;4.07;3.63;;;5.30;99.90;;;;;;5015793;28;20045;-79
2022/12/06 09:08:46;;;;;;;3.95;2.97;;;5.30;99.90;;;;;;5022129;28;21050;-77
2022/12/06 09:11:13;;;;;;;5.03;3.00;;;5.40;99.90;;;;;;5018518;28;20041;-77
2022/12/06 09:13:40;;;;;;;5.53;2.72;;;6.10;99.90;;;;;;5008377;28;20089;-77
2022/12/06 09:16:08;;;;;;;3.25;2.95;;;5.50;99.90;;;;;;5019172;28;20119;-77
2022/12/06 09:18:33;;;;;;;3.38;2.40;;;5.60;99.90;;;;;;5021094;28;20045;-77
2022/12/06 09:21:04;;;;;;;4.05;2.65;;;5.60;99.90;;;;;;5019761;28;20045;-77
2022/12/06 09:23:30;;;;;;;3.55;2.33;;;5.70;99.90;;;;;;5020438;28;20128;-78
2022/12/06 09:25:55;;;;;;;4.50;3.03;;;5.70;99.90;;;;;;5011716;28;20516;-78
2022/12/06 09:28:21;;;;;;;3.15;2.38;;;5.70;99.90;;;;;;5017829;28;20127;-79
2022/12/06 09:30:47;;;;;;;2.90;2.53;;;6.30;99.90;;;;;;5019989;28;20064;-79
2022/12/06 09:33:12;;;;;;;3.72;2.60;;;5.80;99.90;;;;;;5019289;28;20509;-78
2022/12/06 09:35:38;;;;;;;8.18;3.03;;;6.50;99.90;;;;;;5018773;28;20053;-78
2022/12/06 09:38:04;;;;;;;4.45;2.63;;;5.80;99.90;;;;;;5015650;28;20049;-79
2022/12/06 09:40:33;;;;;;;4.25;2.50;;;5.80;99.90;;;;;;5014404;28;20063;-80
2022/12/06 09:43:29;;;;;;;2.20;2.00;;;5.80;99.90;;;;;;5016849;28;20042;-79
2022/12/06 09:46:26;;;;;;;4.53;2.75;;;5.70;99.90;;;;;;5018492;28;20052;-78
2022/12/06 09:48:59;;;;;;;5.05;2.80;;;5.60;99.90;;;;;;5013835;28;20556;-79
2022/12/06 09:51:34;;;;;;;4.18;2.33;;;5.70;99.90;;;;;;5015176;28;20122;-78
2022/12/06 09:54:18;;;;;;;4.43;2.75;;;5.70;99.90;;;;;;5018274;28;20053;-78
2022/12/06 09:56:53;;;;;;;3.72;2.42;;;5.70;99.90;;;;;;5011869;28;20440;-79
2022/12/06 09:59:52;;;;;;;5.80;2.58;;;5.70;99.90;;;;;;5020037;28;20045;-79
2022/12/06 10:02:37;;;;;;;5.07;2.55;;;5.70;99.90;;;;;;5013414;28;20061;-78
2022/12/06 10:05:17;;;;;;;4.60;2.78;;;5.70;99.90;;;;;;5018804;28;20581;-80
2022/12/06 10:07:49;;;;;;;4.30;2.38;;;5.80;99.90;;;;;;5014599;28;20049;-84
2022/12/06 10:10:22;;;;;;;6.45;3.20;;;5.90;99.90;;;;;;5016273;28;20054;-82
2022/12/06 10:12:51;;;;;;;3.47;2.65;;;5.90;99.90;;;;;;5016792;28;20048;-79
2022/12/06 10:15:35;;;;;;;3.20;2.25;;;6.00;99.90;;;;;;5023073;28;20044;-78
2022/12/06 10:18:06;;;;;;;6.07;3.10;;;6.10;99.90;;;;;;5009220;28;20052;-79
2022/12/06 10:20:44;;;;;;;3.33;2.65;;;6.20;99.90;;;;;;5014433;28;20159;-77
2022/12/06 10:24:05;;;;;;;3.65;2.78;;;6.20;99.90;;;;;;5007137;28;20478;-78
2022/12/06 10:27:01;;;;;;;5.00;2.35;;;6.20;99.90;;;;;;4991582;28;20057;-77
2022/12/06 10:30:00;;;;;;;3.05;2.13;;;6.20;99.90;;;;;;5013722;28;20061;-78
2022/12/06 10:32:53;;;;;;;5.53;2.55;;;6.10;99.90;;;;;;5016990;28;20053;-79
2022/12/06 10:35:37;;;;;;;2.78;2.42;;;6.10;99.90;;;;;;5012170;28;20537;-78
2022/12/06 10:38:18;;;;;;;3.20;2.60;;;6.20;99.90;;;;;;5011881;28;20065;-78
2022/12/06 10:40:48;;;;;;;4.45;2.83;;;6.10;99.90;;;;;;5016872;28;20064;-78
2022/12/06 10:43:22;;;;;;;4.13;2.40;;;6.20;99.90;;;;;;5016778;28;20057;-80
2022/12/06 10:48:48;;;;;;;2.90;2.33;;;6.20;99.90;;;;;;5018750;28;20043;-80
2022/12/06 10:51:20;;;;;;;4.32;2.97;;;6.20;99.90;;;;;;5019137;28;20042;-79
2022/12/06 10:54:03;;;;;;;7.15;2.30;;;6.20;99.90;;;;;;5019009;28;20162;-78
2022/12/06 10:56:33;;;;;;;2.47;2.00;;;6.30;99.90;;;;;;5008083;28;20041;-79
2022/12/06 10:59:14;;;;;;;4.13;2.33;;;6.50;99.90;;;;;;5015747;28;20379;-78
2022/12/06 11:01:42;;;;;;;2.38;2.15;;;6.60;99.90;;;;;;5012713;28;20089;-80
2022/12/06 11:04:27;;;;;;;4.68;2.17;;;6.30;99.90;;;;;;5011059;28;20463;-79
2022/12/06 11:07:00;;;;;;;5.38;1.95;;;6.30;99.90;;;;;;5019481;28;20060;-80
2022/12/06 11:09:51;;;;;;;2.60;2.00;;;6.40;99.90;;;;;;5002449;28;20054;-80
2022/12/06 11:12:37;;;;;;;2.97;2.00;;;6.40;99.90;;;;;;5017854;28;20151;-78
2022/12/06 11:15:26;;;;;;;1.83;1.63;;;6.50;99.90;;;;;;5019415;28;20056;-78
2022/12/06 11:18:03;;;;;;;4.07;2.05;;;6.60;99.90;;;;;;5020473;28;20061;-78
2022/12/06 11:20:57;;;;;;;4.20;2.45;;;6.70;99.90;;;;;;5018377;28;20041;-78
2022/12/06 11:23:46;;;;;;;4.22;2.05;;;6.70;99.90;;;;;;5017816;28;20101;-78
2022/12/06 11:26:23;;;;;;;2.70;1.60;;;6.70;99.90;;;;;;5019139;28;20087;-79
2022/12/06 11:29:03;;;;;;;2.60;2.40;;;6.70;99.90;;;;;;5018544;28;20068;-80
2022/12/06 11:31:37;;;;;;;1.75;1.40;;;6.80;99.90;;;;;;5018088;28;20053;-77
2022/12/06 11:34:08;;;;;;;5.20;2.25;;;6.80;99.90;;;;;;5019555;28;20065;-79
2022/12/06 11:36:34;;;;;;;2.38;1.33;;;7.00;99.90;;;;;;5017516;28;20057;-80
2022/12/06 11:39:00;;;;;;;2.72;1.85;;;7.00;99.90;;;;;;5019199;28;20549;-80
2022/12/06 11:41:35;;;;;;;2.75;1.83;;;7.10;99.90;;;;;;5015563;28;20130;-79
2022/12/06 11:44:01;;;;;;;3.92;1.77;;;7.10;99.90;;;;;;5018391;28;20050;-79
2022/12/06 11:46:27;;;;;;;3.90;1.67;;;7.10;99.90;;;;;;5018833;28;20041;-78
2022/12/06 11:48:56;;;;;;;2.33;1.55;;;7.20;99.90;;;;;;5017954;28;20221;-79
2022/12/06 11:51:24;;;;;;;2.40;2.10;;;7.20;99.90;;;;;;5019601;28;20071;-80
2022/12/06 11:54:06;;;;;;;3.05;1.63;;;7.40;99.90;;;;;;5020718;28;20049;-78
2022/12/06 11:56:36;;;;;;;4.50;1.60;;;7.50;99.90;;;;;;5018579;28;20078;-79
2022/12/06 11:59:25;;;;;;;2.65;1.60;;;7.60;99.90;;;;;;5020336;28;20442;-78
2022/12/06 12:02:02;;;;;;;1.70;1.30;;;7.60;99.90;;;;;;5014567;28;20049;-79
2022/12/06 12:04:43;;;;;;;2.53;1.20;;;7.70;99.90;;;;;;5016270;28;20081;-78
2022/12/06 12:07:10;;;;;;;2.05;1.65;;;7.70;99.90;;;;;;5006878;28;20156;-77
2022/12/06 12:09:58;;;;;;;5.70;1.55;;;7.70;99.90;;;;;;5022865;28;20406;-78
2022/12/06 12:13:42;;;;;;;1.45;1.35;;;7.60;99.90;;;;;;5016498;28;20836;-78
2022/12/06 12:15:17;;;;;;;1.52;1.23;;;7.50;99.90;;;;;;5021958;28;20127;-78
2022/12/06 12:17:46;;;;;;;2.70;1.73;;;7.50;99.90;;;;;;5012261;28;20057;-79
2022/12/06 12:20:30;;;;;;;1.33;1.23;;;8.00;99.90;;;;;;5012432;28;20049;-79
2022/12/06 12:23:15;;;;;;;1.50;1.27;;;7.50;99.90;;;;;;5009686;28;20045;-79
2022/12/06 12:25:43;;;;;;;1.35;1.25;;;7.50;99.90;;;;;;5017313;28;20851;-79
2022/12/06 12:28:24;;;;;;;2.35;1.50;;;7.50;99.90;;;;;;5013038;28;20088;-79
2022/12/06 12:30:59;;;;;;;1.13;1.00;;;7.70;99.90;;;;;;5016755;28;20611;-79
2022/12/06 12:33:28;;;;;;;2.13;1.42;;;7.50;99.90;;;;;;5018720;28;20551;-79
2022/12/06 12:36:03;;;;;;;1.73;1.63;;;7.50;99.90;;;;;;5015331;28;20059;-80
2022/12/06 12:39:01;;;;;;;2.78;1.60;;;7.50;99.90;;;;;;5014093;28;20053;-79
2022/12/06 12:41:38;;;;;;;3.88;1.95;;;7.50;99.90;;;;;;5014874;28;20046;-79
2022/12/06 12:44:11;;;;;;;3.42;3.22;;;7.50;99.90;;;;;;5014535;28;20532;-80
2022/12/06 12:46:43;;;;;;;1.85;1.67;;;7.50;99.90;;;;;;5018017;28;20140;-78
2022/12/06 12:49:22;;;;;;;4.30;2.05;;;7.50;99.90;;;;;;5010821;28;20045;-79
2022/12/06 12:51:48;;;;;;;2.30;1.70;;;7.50;99.90;;;;;;5011224;28;20046;-79
2022/12/06 12:54:30;;;;;;;2.92;2.42;;;7.60;99.90;;;;;;5014124;28;20053;-79
2022/12/06 12:56:57;;;;;;;2.72;2.15;;;7.60;99.90;;;;;;5009720;28;20776;-80
2022/12/06 12:59:26;;;;;;;5.45;2.00;;;7.70;99.90;;;;;;5021079;28;20053;-78
2022/12/06 13:02:10;;;;;;;4.25;2.08;;;7.80;99.90;;;;;;5017233;28;20053;-78
2022/12/06 13:04:40;;;;;;;3.78;1.83;;;7.80;99.90;;;;;;5018165;28;20619;-78
2022/12/06 13:07:08;;;;;;;1.70;1.60;;;7.80;99.90;;;;;;5006598;28;20812;-78
2022/12/06 13:09:42;;;;;;;2.47;1.55;;;7.80;99.90;;;;;;5005895;28;20057;-79
2022/12/06 13:12:23;;;;;;;;;;;7.80;99.90;;;;;;5017016;28;20652;-77
2022/12/06 13:14:54;;;;;;;5.05;1.63;;;7.60;99.90;;;;;;5013603;28;20552;-79
2022/12/06 13:17:25;;;;;;;3.05;2.00;;;7.80;99.90;;;;;;5018098;28;20045;-78
2022/12/06 13:19:52;;;;;;;1.83;1.25;;;7.90;99.90;;;;;;5019460;28;20053;-79
2022/12/06 13:22:26;;;;;;;2.58;2.10;;;7.90;99.90;;;;;;5001114;28;20096;-78
2022/12/06 13:25:00;;;;;;;2.20;2.00;;;7.90;99.90;;;;;;5012609;28;20045;-79
2022/12/06 13:27:29;;;;;;;3.42;2.10;;;7.90;99.90;;;;;;5011723;28;20134;-78
2022/12/06 13:30:00;;;;;;;4.38;1.65;;;8.00;99.90;;;;;;5015751;28;20149;-79
2022/12/06 13:32:38;;;;;;;2.50;1.67;;;8.00;99.90;;;;;;5018108;28;20049;-79
2022/12/06 13:35:35;;;;;;;3.33;2.05;;;7.80;99.90;;;;;;5017096;28;20053;-79
2022/12/06 13:38:24;;;;;;;2.92;1.95;;;7.90;99.90;;;;;;5007789;28;20052;-81
2022/12/06 13:40:52;;;;;;;4.18;2.63;;;7.90;99.90;;;;;;5013275;28;20045;-79
2022/12/06 13:43:23;;;;;;;2.08;1.58;;;7.90;99.90;;;;;;5008479;28;20134;-78
2022/12/06 13:45:50;;;;;;;2.10;1.60;;;7.80;99.90;;;;;;5014586;28;20045;-78
2022/12/06 13:48:24;;;;;;;1.98;1.63;;;7.90;99.90;;;;;;5016773;28;20049;-78